Time;durP1;ratioP1;P1;durP2;ratioP2;P2;SDS_P1;SDS_P2;PMS_P1;PMS_P2;Temp;Humidity;BMP_temperature;BMP_pressure;BME280_temperature;BME280_humidity;BME280_pressure;Samples;Min_cycle;Max_cycle;Signal;HPM_P1;HPM_P2
2021/09/25 04:50:57;;;;;;;4.03;3.40;;;;;;;;;;5669965;23;20061;-89
2021/09/25 04:53:25;;;;;;;4.72;3.60;;;;;;;;;;4976423;28;20129;-88
2021/09/25 04:55:52;;;;;;;4.03;3.58;;;;;;;;;;4976964;28;20050;-90
2021/09/25 04:58:23;;;;;;;6.10;3.80;;;;;;;;;;4974973;28;20046;-88
2021/09/25 05:00:50;;;;;;;7.28;3.58;;;;;;;;;;4981150;28;20038;-89
2021/09/25 05:03:18;;;;;;;4.38;3.50;;;;;;;;;;4979290;28;20058;-89
2021/09/25 05:05:45;;;;;;;4.15;3.60;;;;;;;;;;4969507;28;20121;-88
2021/09/25 05:08:14;;;;;;;6.85;3.70;;;;;;;;;;4994339;28;20046;-89
2021/09/25 05:10:42;;;;;;;5.18;3.78;;;;;;;;;;4976569;28;20096;-90
2021/09/25 05:13:11;;;;;;;5.18;3.70;;;;;;;;;;4989684;28;20073;-88
2021/09/25 05:15:38;;;;;;;21.50;15.55;;;;;;;;;;4990157;28;20534;-88
2021/09/25 05:18:08;;;;;;;50.20;34.67;;;;;;;;;;4993536;28;20050;-88
2021/09/25 05:20:35;;;;;;;14.35;9.57;;;;;;;;;;4975734;28;20105;-88
2021/09/25 05:23:03;;;;;;;109.50;74.68;;;;;;;;;;4990390;28;20054;-89
2021/09/25 05:25:32;;;;;;;61.95;42.50;;;;;;;;;;4990785;28;20048;-88
2021/09/25 05:27:59;;;;;;;13.60;9.02;;;;;;;;;;4976550;28;20046;-88
2021/09/25 05:30:27;;;;;;;12.07;7.03;;;;;;;;;;4992959;28;20073;-89
2021/09/25 05:32:54;;;;;;;8.07;5.63;;;;;;;;;;4968021;28;20079;-89
2021/09/25 05:35:22;;;;;;;57.63;38.20;;;;;;;;;;4981640;28;20040;-88
2021/09/25 05:37:52;;;;;;;203.48;123.93;;;;;;;;;;4976643;28;20043;-90
2021/09/25 05:40:19;;;;;;;219.98;131.52;;;;;;;;;;4980785;28;20057;-89
2021/09/25 05:42:49;;;;;;;125.93;76.15;;;;;;;;;;4990264;28;20440;-92
2021/09/25 05:45:17;;;;;;;22.60;15.15;;;;;;;;;;4994208;28;20046;-91
2021/09/25 05:47:47;;;;;;;42.25;31.75;;;;;;;;;;4977192;28;20058;-89
2021/09/25 05:50:15;;;;;;;30.02;22.55;;;;;;;;;;4990299;28;20053;-88
2021/09/25 05:52:43;;;;;;;8.27;6.85;;;;;;;;;;4974266;28;20061;-89
2021/09/25 05:55:11;;;;;;;4.70;4.20;;;;;;;;;;4979321;28;20046;-89
2021/09/25 05:57:38;;;;;;;5.70;4.13;;;;;;;;;;4975160;28;20107;-88
2021/09/25 06:00:09;;;;;;;5.43;4.40;;;;;;;;;;5006818;28;20030;-89
2021/09/25 06:02:40;;;;;;;6.07;5.00;;;;;;;;;;5012384;28;20050;-89
2021/09/25 06:05:09;;;;;;;6.50;4.25;;;;;;;;;;5013252;28;20058;-88
2021/09/25 06:07:36;;;;;;;4.43;4.03;;;;;;;;;;5000419;28;20031;-89
2021/09/25 06:10:05;;;;;;;4.63;3.83;;;;;;;;;;5001206;28;20074;-89
2021/09/25 06:12:32;;;;;;;8.63;3.97;;;;;;;;;;4978384;28;20043;-89
2021/09/25 06:15:00;;;;;;;6.03;3.40;;;;;;;;;;4993540;28;20263;-90
2021/09/25 06:17:29;;;;;;;4.40;3.20;;;;;;;;;;4976156;28;20073;-90
2021/09/25 06:19:56;;;;;;;3.72;3.20;;;;;;;;;;4991743;28;20043;-90
2021/09/25 06:22:25;;;;;;;4.25;3.25;;;;;;;;;;4978465;28;20053;-89
2021/09/25 06:24:53;;;;;;;4.82;3.25;;;;;;;;;;4980197;28;20058;-91
2021/09/25 06:27:20;;;;;;;6.63;3.10;;;;;;;;;;4983044;28;20105;-91
2021/09/25 06:29:50;;;;;;;3.63;3.00;;;;;;;;;;4998024;28;20047;-89
2021/09/25 06:32:17;;;;;;;6.68;4.32;;;;;;;;;;4970511;28;20129;-89
2021/09/25 06:34:49;;;;;;;3.67;3.38;;;;;;;;;;4983530;28;20067;-89
2021/09/25 06:37:17;;;;;;;5.25;3.60;;;;;;;;;;4984403;28;20050;-89
2021/09/25 06:39:44;;;;;;;5.10;3.90;;;;;;;;;;4986042;28;20077;-89
2021/09/25 06:42:13;;;;;;;4.47;3.78;;;;;;;;;;4992715;28;20054;-88
2021/09/25 06:44:41;;;;;;;10.40;3.45;;;;;;;;;;4976869;28;20046;-89
2021/09/25 06:47:08;;;;;;;5.82;3.80;;;;;;;;;;4992951;28;20118;-89
2021/09/25 06:49:36;;;;;;;6.72;3.72;;;;;;;;;;4987890;28;20131;-89
2021/09/25 06:52:06;;;;;;;6.47;3.83;;;;;;;;;;4969495;28;20050;-88
2021/09/25 06:54:35;;;;;;;5.95;5.18;;;;;;;;;;4972803;28;20452;-89
2021/09/25 06:57:02;;;;;;;9.40;8.30;;;;;;;;;;4971255;28;20074;-89
2021/09/25 06:59:30;;;;;;;11.27;8.00;;;;;;;;;;4970403;28;20046;-89
2021/09/25 07:01:58;;;;;;;14.90;8.00;;;;;;;;;;4971512;28;20109;-89
2021/09/25 07:04:33;;;;;;;10.38;7.70;;;;;;;;;;4972175;28;20043;-90
2021/09/25 07:07:00;;;;;;;8.82;6.95;;;;;;;;;;4970244;28;20039;-90
2021/09/25 07:09:41;;;;;;;7.07;6.15;;;;;;;;;;4964281;28;20106;-90
2021/09/25 07:12:15;;;;;;;12.20;7.88;;;;;;;;;;4968792;28;20105;-90
2021/09/25 07:14:56;;;;;;;9.85;7.22;;;;;;;;;;4980800;28;20151;-90
2021/09/25 07:17:28;;;;;;;6.93;6.03;;;;;;;;;;4971316;28;20043;-90
2021/09/25 07:19:59;;;;;;;10.25;6.97;;;;;;;;;;4970856;28;20050;-89
2021/09/25 07:22:28;;;;;;;12.55;10.52;;;;;;;;;;4976250;28;20046;-90
2021/09/25 07:24:59;;;;;;;15.85;14.18;;;;;;;;;;4975960;28;20503;-89
2021/09/25 07:27:27;;;;;;;18.45;15.48;;;;;;;;;;4975217;28;20046;-89
2021/09/25 07:29:58;;;;;;;17.58;14.23;;;;;;;;;;4974154;28;20043;-90
2021/09/25 07:32:29;;;;;;;27.27;16.98;;;;;;;;;;4963505;28;20039;-90
2021/09/25 07:34:59;;;;;;;28.52;17.85;;;;;;;;;;4972916;28;20492;-90
2021/09/25 07:37:27;;;;;;;23.35;16.65;;;;;;;;;;4974145;28;20121;-90
2021/09/25 07:39:57;;;;;;;16.95;15.02;;;;;;;;;;4974659;28;20238;-90
2021/09/25 07:42:28;;;;;;;23.75;16.88;;;;;;;;;;4974823;28;20050;-90
2021/09/25 07:44:59;;;;;;;21.77;16.98;;;;;;;;;;4974001;28;20082;-89
2021/09/25 07:47:29;;;;;;;21.83;16.23;;;;;;;;;;4975800;28;20362;-90
2021/09/25 07:50:00;;;;;;;19.20;16.42;;;;;;;;;;4978821;28;20039;-90
2021/09/25 07:52:27;;;;;;;19.75;14.10;;;;;;;;;;4975068;28;20098;-91
2021/09/25 07:54:55;;;;;;;16.35;13.82;;;;;;;;;;4971456;28;20044;-89
2021/09/25 07:57:22;;;;;;;19.95;15.52;;;;;;;;;;4969197;28;20133;-90
2021/09/25 07:59:51;;;;;;;20.05;14.43;;;;;;;;;;4974838;28;20061;-90
2021/09/25 08:02:20;;;;;;;18.67;13.98;;;;;;;;;;4957226;28;20051;-90
2021/09/25 08:04:48;;;;;;;15.13;13.20;;;;;;;;;;4975767;28;20046;-89
2021/09/25 08:07:17;;;;;;;18.55;13.50;;;;;;;;;;4973764;28;20040;-89
2021/09/25 08:09:45;;;;;;;18.35;13.07;;;;;;;;;;4962732;28;20047;-89
2021/09/25 08:12:14;;;;;;;13.95;12.40;;;;;;;;;;4974618;28;20407;-89
2021/09/25 08:14:44;;;;;;;15.57;12.73;;;;;;;;;;4964349;28;20510;-89
2021/09/25 08:17:20;;;;;;;15.60;12.27;;;;;;;;;;4962136;28;20094;-89
2021/09/25 08:19:49;;;;;;;15.05;11.23;;;;;;;;;;4961867;28;20528;-89
2021/09/25 08:22:17;;;;;;;13.02;11.70;;;;;;;;;;4975184;28;20408;-88
2021/09/25 08:24:56;;;;;;;11.38;10.15;;;;;;;;;;4975429;28;20049;-89
2021/09/25 08:27:26;;;;;;;10.50;9.30;;;;;;;;;;4973455;28;20039;-88
2021/09/25 08:29:54;;;;;;;10.75;8.75;;;;;;;;;;4971665;28;20042;-89
2021/09/25 08:35:18;;;;;;;11.00;8.70;;;;;;;;;;4970386;28;20133;-89
2021/09/25 08:37:48;;;;;;;8.00;7.25;;;;;;;;;;4975358;28;20044;-90
2021/09/25 08:40:21;;;;;;;8.57;7.72;;;;;;;;;;4967064;28;20047;-90
2021/09/25 08:42:49;;;;;;;9.82;7.72;;;;;;;;;;4981481;28;20047;-90
2021/09/25 08:45:16;;;;;;;10.75;9.10;;;;;;;;;;4995866;28;20091;-89
2021/09/25 08:47:45;;;;;;;10.20;9.10;;;;;;;;;;4990681;28;20062;-89
2021/09/25 08:50:15;;;;;;;9.52;8.63;;;;;;;;;;4998004;28;20065;-90
2021/09/25 08:52:42;;;;;;;8.82;8.02;;;;;;;;;;5003393;23;20074;-71
2021/09/25 08:55:11;;;;;;;13.25;7.90;;;;;;;;;;4980786;28;20066;-72
2021/09/25 08:57:39;;;;;;;9.18;8.38;;;;;;;;;;4980656;28;20070;-71
2021/09/25 09:00:25;;;;;;;10.75;8.77;;;;;;;;;;4990333;28;20069;-72
2021/09/25 09:02:54;;;;;;;10.20;8.27;;;;;;;;;;4954726;28;20403;-71
2021/09/25 09:05:27;;;;;;;10.75;8.20;;;;;;;;;;4958417;28;20132;-72
2021/09/25 09:07:56;;;;;;;9.60;8.35;;;;;;;;;;4959144;28;20463;-71
2021/09/25 09:10:27;;;;;;;10.90;8.35;;;;;;;;;;4957443;28;20034;-72
2021/09/25 09:12:54;;;;;;;9.80;8.80;;;;;;;;;;4954163;28;20053;-72
2021/09/25 09:15:22;;;;;;;12.00;8.10;;;;;;;;;;4966388;28;20039;-72
2021/09/25 09:17:49;;;;;;;9.63;7.72;;;;;;;;;;4967746;28;20519;-73
2021/09/25 09:20:19;;;;;;;11.77;8.25;;;;;;;;;;4956391;28;20035;-73
2021/09/25 09:22:46;;;;;;;9.63;7.75;;;;;;;;;;4969680;28;20126;-72
2021/09/25 09:25:14;;;;;;;8.82;7.90;;;;;;;;;;4965003;28;20065;-70
2021/09/25 09:27:45;;;;;;;11.73;8.10;;;;;;;;;;4949499;28;20046;-72
2021/09/25 09:30:13;;;;;;;8.65;7.70;;;;;;;;;;4960485;28;20034;-70
2021/09/25 09:32:41;;;;;;;7.63;6.82;;;;;;;;;;4967518;28;20098;-73
2021/09/25 09:35:09;;;;;;;10.25;7.40;;;;;;;;;;4961685;28;20066;-72
2021/09/25 09:37:38;;;;;;;9.57;6.18;;;;;;;;;;4956693;28;20051;-73
2021/09/25 09:40:07;;;;;;;8.10;5.65;;;;;;;;;;4971213;28;20055;-72
2021/09/25 09:42:43;;;;;;;8.95;6.25;;;;;;;;;;4957525;28;20146;-70
2021/09/25 09:45:11;;;;;;;7.90;6.30;;;;;;;;;;4947748;29;20713;-71
2021/09/25 09:47:44;;;;;;;9.30;5.60;;;;;;;;;;4940989;28;20387;-73
2021/09/25 09:50:12;;;;;;;7.32;5.90;;;;;;;;;;4960664;28;20041;-71
2021/09/25 09:52:41;;;;;;;5.80;5.30;;;;;;;;;;4963718;28;20415;-72
2021/09/25 09:55:09;;;;;;;8.30;5.57;;;;;;;;;;4964927;28;20043;-71
2021/09/25 09:57:36;;;;;;;8.30;5.00;;;;;;;;;;4955916;28;20058;-72
2021/09/25 10:00:04;;;;;;;7.38;5.13;;;;;;;;;;4970176;28;20146;-70
2021/09/25 10:02:32;;;;;;;4.85;4.35;;;;;;;;;;4948440;28;20035;-72
2021/09/25 10:05:00;;;;;;;8.05;4.75;;;;;;;;;;4959385;28;20134;-72
2021/09/25 10:07:27;;;;;;;5.30;4.80;;;;;;;;;;4970365;28;20047;-71
2021/09/25 10:09:56;;;;;;;6.95;5.25;;;;;;;;;;4967772;28;20114;-71
2021/09/25 10:12:23;;;;;;;9.73;5.60;;;;;;;;;;4942241;29;20114;-71
2021/09/25 10:14:50;;;;;;;8.18;5.38;;;;;;;;;;4957656;28;20035;-71
2021/09/25 10:17:18;;;;;;;7.35;5.35;;;;;;;;;;4954347;28;20156;-71
2021/09/25 10:19:47;;;;;;;5.60;5.00;;;;;;;;;;4958610;28;20044;-71
2021/09/25 10:22:15;;;;;;;11.07;5.35;;;;;;;;;;4963287;28;20049;-72
2021/09/25 10:24:44;;;;;;;9.07;6.18;;;;;;;;;;4969384;28;20039;-72
2021/09/25 10:27:13;;;;;;;9.30;6.07;;;;;;;;;;4970749;28;20038;-70
2021/09/25 10:29:44;;;;;;;7.80;5.15;;;;;;;;;;4956886;28;20039;-72
2021/09/25 10:32:25;;;;;;;8.20;5.97;;;;;;;;;;4965321;28;20401;-71
2021/09/25 10:34:56;;;;;;;9.45;6.10;;;;;;;;;;4968232;28;20075;-71
2021/09/25 10:37:23;;;;;;;8.20;4.82;;;;;;;;;;4970492;28;20503;-70
2021/09/25 10:39:56;;;;;;;5.65;4.20;;;;;;;;;;4966668;28;20042;-72
2021/09/25 10:42:38;;;;;;;4.60;4.00;;;;;;;;;;4963705;28;20122;-71
2021/09/25 10:45:10;;;;;;;4.57;3.58;;;;;;;;;;4967441;28;20035;-70
2021/09/25 10:47:37;;;;;;;6.43;4.00;;;;;;;;;;4971920;28;20179;-70
2021/09/25 10:50:11;;;;;;;6.45;4.38;;;;;;;;;;4954666;28;20114;-70
2021/09/25 10:52:43;;;;;;;5.47;4.47;;;;;;;;;;4964400;28;20061;-70
2021/09/25 10:55:23;;;;;;;7.00;4.57;;;;;;;;;;4962763;28;20046;-71
2021/09/25 10:58:09;;;;;;;7.15;4.88;;;;;;;;;;4953229;28;20043;-70
2021/09/25 11:00:49;;;;;;;7.38;4.85;;;;;;;;;;4948466;29;20511;-71
2021/09/25 11:03:31;;;;;;;5.55;4.30;;;;;;;;;;4956794;28;20167;-70
2021/09/25 11:06:03;;;;;;;4.78;4.25;;;;;;;;;;4955904;28;20051;-70
2021/09/25 11:08:32;;;;;;;7.05;3.75;;;;;;;;;;4940818;28;20058;-70
2021/09/25 11:11:06;;;;;;;5.07;3.75;;;;;;;;;;4953359;28;20476;-69
2021/09/25 11:13:52;;;;;;;10.93;4.10;;;;;;;;;;4967135;28;20057;-70
2021/09/25 11:16:41;;;;;;;6.22;4.47;;;;;;;;;;4949482;28;20125;-70
2021/09/25 11:19:10;;;;;;;4.65;3.80;;;;;;;;;;4967767;28;20400;-71
2021/09/25 11:21:37;;;;;;;8.38;4.63;;;;;;;;;;4968817;28;20055;-70
2021/09/25 11:24:05;;;;;;;5.35;3.70;;;;;;;;;;4969073;28;20043;-70
2021/09/25 11:26:35;;;;;;;5.97;4.00;;;;;;;;;;4959771;28;20047;-71
2021/09/25 11:29:07;;;;;;;6.97;3.72;;;;;;;;;;4957438;28;20039;-71
2021/09/25 11:31:36;;;;;;;4.53;3.72;;;;;;;;;;4967300;28;20060;-71
2021/09/25 11:34:04;;;;;;;6.35;3.80;;;;;;;;;;4953589;28;20051;-70
2021/09/25 11:36:31;;;;;;;4.97;3.53;;;;;;;;;;4945150;28;20054;-71
2021/09/25 11:38:58;;;;;;;6.65;3.72;;;;;;;;;;4965021;28;20419;-71
2021/09/25 11:41:26;;;;;;;4.90;3.53;;;;;;;;;;4952673;28;20047;-70
2021/09/25 11:43:57;;;;;;;5.78;4.18;;;;;;;;;;4966507;28;20046;-71
2021/09/25 11:46:24;;;;;;;7.60;4.32;;;;;;;;;;4965518;28;20421;-71
2021/09/25 11:48:57;;;;;;;5.60;3.67;;;;;;;;;;4967511;28;20039;-72
2021/09/25 11:51:25;;;;;;;7.22;4.32;;;;;;;;;;4955042;28;20537;-70
2021/09/25 11:53:56;;;;;;;7.70;4.00;;;;;;;;;;4971263;28;20070;-70
2021/09/25 11:56:27;;;;;;;5.82;4.00;;;;;;;;;;4963653;28;20109;-71
2021/09/25 11:58:54;;;;;;;7.22;3.90;;;;;;;;;;4970776;28;20039;-70
2021/09/25 12:01:22;;;;;;;6.05;4.03;;;;;;;;;;4963539;28;20045;-71
2021/09/25 12:03:49;;;;;;;9.43;4.10;;;;;;;;;;4952184;28;20055;-72
2021/09/25 12:06:17;;;;;;;5.07;3.33;;;;;;;;;;4969996;28;20046;-71
2021/09/25 12:08:50;;;;;;;6.72;3.50;;;;;;;;;;4972109;28;20518;-71
2021/09/25 12:11:17;;;;;;;4.50;4.15;;;;;;;;;;4954595;28;20039;-71
2021/09/25 12:13:45;;;;;;;5.82;3.65;;;;;;;;;;4968904;28;20045;-71
2021/09/25 12:16:13;;;;;;;4.57;3.85;;;;;;;;;;4967571;28;20039;-73
2021/09/25 12:18:41;;;;;;;5.15;3.83;;;;;;;;;;4940159;28;20055;-71
2021/09/25 12:21:09;;;;;;;4.70;3.47;;;;;;;;;;4956545;28;20055;-72
2021/09/25 12:23:39;;;;;;;5.85;3.22;;;;;;;;;;4947700;29;20520;-72
2021/09/25 12:26:07;;;;;;;5.88;3.90;;;;;;;;;;4959388;28;20050;-72
2021/09/25 12:28:38;;;;;;;5.22;3.95;;;;;;;;;;4958617;28;20049;-71
2021/09/25 12:31:08;;;;;;;7.90;3.92;;;;;;;;;;4958281;28;20400;-71
2021/09/25 12:33:35;;;;;;;5.97;3.80;;;;;;;;;;4949137;28;20047;-72
2021/09/25 12:36:04;;;;;;;7.18;3.75;;;;;;;;;;4968756;28;20573;-72
2021/09/25 12:38:33;;;;;;;5.30;4.25;;;;;;;;;;4958390;28;20039;-72
2021/09/25 12:41:03;;;;;;;5.03;3.85;;;;;;;;;;4970374;28;20117;-71
2021/09/25 12:43:33;;;;;;;7.07;4.13;;;;;;;;;;4949669;29;20044;-71
2021/09/25 12:46:15;;;;;;;7.65;3.88;;;;;;;;;;4959163;28;20468;-72
2021/09/25 12:49:01;;;;;;;7.38;4.40;;;;;;;;;;4972843;28;20142;-72
2021/09/25 12:51:29;;;;;;;7.35;3.88;;;;;;;;;;4950916;28;20046;-72
2021/09/25 12:53:57;;;;;;;6.05;3.80;;;;;;;;;;4965933;28;20515;-73
2021/09/25 12:56:30;;;;;;;6.95;4.50;;;;;;;;;;4970116;28;20067;-71
2021/09/25 12:59:00;;;;;;;6.45;4.95;;;;;;;;;;4955854;28;20049;-73
2021/09/25 13:01:28;;;;;;;7.97;4.05;;;;;;;;;;4970314;28;20506;-71
2021/09/25 13:03:56;;;;;;;5.32;3.63;;;;;;;;;;4962019;28;20043;-72
2021/09/25 13:06:25;;;;;;;6.13;4.60;;;;;;;;;;4957146;28;20090;-73
2021/09/25 13:08:59;;;;;;;7.13;4.05;;;;;;;;;;4955430;28;20050;-72
2021/09/25 13:11:28;;;;;;;5.13;4.20;;;;;;;;;;4963642;28;20118;-71
2021/09/25 13:14:05;;;;;;;6.10;4.15;;;;;;;;;;4967989;28;20058;-72
2021/09/25 13:16:33;;;;;;;5.93;4.68;;;;;;;;;;4968757;28;20503;-71
2021/09/25 13:19:00;;;;;;;5.10;4.38;;;;;;;;;;4961102;28;20105;-73
2021/09/25 13:21:27;;;;;;;6.47;4.20;;;;;;;;;;4958219;28;20423;-73
2021/09/25 13:23:59;;;;;;;6.43;4.03;;;;;;;;;;4963930;28;20053;-73
2021/09/25 13:26:28;;;;;;;8.40;5.65;;;;;;;;;;4968718;28;20081;-72
2021/09/25 13:28:55;;;;;;;4.13;3.75;;;;;;;;;;4970581;28;20050;-72
2021/09/25 13:31:23;;;;;;;6.07;5.47;;;;;;;;;;4966365;28;20049;-72
2021/09/25 13:33:50;;;;;;;6.22;3.78;;;;;;;;;;4964430;28;20151;-73
2021/09/25 13:36:18;;;;;;;4.05;3.65;;;;;;;;;;4967271;28;20122;-72
2021/09/25 13:38:46;;;;;;;5.28;3.92;;;;;;;;;;4952062;28;20045;-73
2021/09/25 13:41:14;;;;;;;7.07;4.40;;;;;;;;;;4941853;29;20086;-73
2021/09/25 13:43:42;;;;;;;3.95;3.55;;;;;;;;;;4957679;28;20039;-72
2021/09/25 13:46:10;;;;;;;8.57;3.80;;;;;;;;;;4955583;28;20038;-72
2021/09/25 13:48:37;;;;;;;8.00;4.00;;;;;;;;;;4962676;28;20046;-72
2021/09/25 13:51:04;;;;;;;6.82;3.70;;;;;;;;;;4968199;28;20563;-72
2021/09/25 13:53:32;;;;;;;5.88;3.65;;;;;;;;;;4963636;28;20058;-71
2021/09/25 13:56:01;;;;;;;3.95;3.63;;;;;;;;;;4965275;28;20138;-73
2021/09/25 13:58:28;;;;;;;4.88;3.80;;;;;;;;;;4957449;28;20110;-72
2021/09/25 14:00:57;;;;;;;3.63;3.33;;;;;;;;;;4957239;28;20047;-73
2021/09/25 14:03:25;;;;;;;5.90;3.67;;;;;;;;;;4937618;28;20574;-73
2021/09/25 14:05:54;;;;;;;4.43;3.30;;;;;;;;;;4954098;28;20488;-72
2021/09/25 14:08:21;;;;;;;7.18;3.70;;;;;;;;;;4956215;28;20051;-72
2021/09/25 14:10:49;;;;;;;5.30;3.92;;;;;;;;;;4956177;28;20050;-73
2021/09/25 14:13:16;;;;;;;8.20;4.28;;;;;;;;;;4969799;28;20077;-72
2021/09/25 14:15:43;;;;;;;7.07;3.92;;;;;;;;;;4969091;28;20528;-73
2021/09/25 14:18:12;;;;;;;4.85;3.50;;;;;;;;;;4960054;28;20050;-72
2021/09/25 14:20:42;;;;;;;3.80;3.30;;;;;;;;;;4957223;28;20049;-73
2021/09/25 14:23:11;;;;;;;5.60;2.78;;;;;;;;;;4951776;28;20094;-72
2021/09/25 14:25:39;;;;;;;4.53;2.85;;;;;;;;;;4955099;28;20055;-72
2021/09/25 14:28:07;;;;;;;3.50;3.20;;;;;;;;;;4963859;28;20039;-73
2021/09/25 14:30:34;;;;;;;5.60;3.28;;;;;;;;;;4968256;28;20043;-72
2021/09/25 14:33:02;;;;;;;4.82;3.13;;;;;;;;;;4953194;28;20074;-73
2021/09/25 14:35:30;;;;;;;6.47;3.15;;;;;;;;;;4956919;28;20047;-72
2021/09/25 14:37:58;;;;;;;15.40;13.68;;;;;;;;;;4938192;29;20071;-72
2021/09/25 14:40:25;;;;;;;10.02;6.97;;;;;;;;;;4955822;28;20125;-73
2021/09/25 14:42:53;;;;;;;10.40;7.22;;;;;;;;;;4969354;28;20049;-72
2021/09/25 14:45:20;;;;;;;9.27;6.07;;;;;;;;;;4940808;29;20054;-71
2021/09/25 14:47:47;;;;;;;15.75;9.05;;;;;;;;;;4957591;28;20043;-71
2021/09/25 14:50:17;;;;;;;6.93;4.55;;;;;;;;;;4952003;28;20395;-72
2021/09/25 14:52:46;;;;;;;4.40;3.55;;;;;;;;;;4964524;28;20097;-71
2021/09/25 14:55:13;;;;;;;4.20;3.45;;;;;;;;;;4946602;29;20054;-72
2021/09/25 14:57:40;;;;;;;5.47;2.90;;;;;;;;;;4956564;28;20043;-70
2021/09/25 15:00:08;;;;;;;7.60;3.40;;;;;;;;;;4937001;28;20055;-71
2021/09/25 15:02:35;;;;;;;4.05;3.38;;;;;;;;;;4968702;28;20062;-72
2021/09/25 15:05:03;;;;;;;3.88;3.28;;;;;;;;;;4961937;28;20043;-71
2021/09/25 15:07:30;;;;;;;4.00;3.25;;;;;;;;;;4955817;28;20038;-71
2021/09/25 15:09:59;;;;;;;5.07;3.20;;;;;;;;;;4969275;28;20661;-71
2021/09/25 15:12:26;;;;;;;5.22;3.65;;;;;;;;;;4955406;28;20122;-71
2021/09/25 15:14:53;;;;;;;9.57;6.82;;;;;;;;;;4945891;28;20067;-71
2021/09/25 15:17:21;;;;;;;7.88;4.55;;;;;;;;;;4967447;28;20546;-71
2021/09/25 15:19:48;;;;;;;6.38;5.78;;;;;;;;;;4970709;28;20105;-71
2021/09/25 15:22:17;;;;;;;6.05;4.53;;;;;;;;;;4959870;28;20043;-71
2021/09/25 15:24:44;;;;;;;5.43;3.35;;;;;;;;;;4965446;28;20266;-71
2021/09/25 15:27:13;;;;;;;4.25;3.58;;;;;;;;;;4957702;28;20054;-71
2021/09/25 15:29:41;;;;;;;5.72;3.67;;;;;;;;;;4972241;28;20043;-71
2021/09/25 15:32:10;;;;;;;7.72;3.40;;;;;;;;;;4952891;28;20532;-71
2021/09/25 15:34:39;;;;;;;3.22;3.03;;;;;;;;;;4976411;28;20126;-70
2021/09/25 15:37:07;;;;;;;4.20;3.05;;;;;;;;;;4967672;28;20055;-71
2021/09/25 15:39:35;;;;;;;6.45;3.67;;;;;;;;;;4965479;28;20103;-71
2021/09/25 15:42:03;;;;;;;6.10;3.25;;;;;;;;;;4964956;28;20042;-71
2021/09/25 15:44:32;;;;;;;5.90;3.63;;;;;;;;;;4970858;28;20043;-70
2021/09/25 15:47:00;;;;;;;7.93;3.42;;;;;;;;;;4956973;28;20055;-69
2021/09/25 15:49:27;;;;;;;4.88;3.90;;;;;;;;;;4969950;28;20050;-69
2021/09/25 15:51:54;;;;;;;5.43;3.80;;;;;;;;;;4965042;28;20035;-70
2021/09/25 15:54:22;;;;;;;4.72;3.60;;;;;;;;;;4971766;28;20039;-69
2021/09/25 15:56:49;;;;;;;6.75;4.05;;;;;;;;;;4971509;28;20057;-70
2021/09/25 15:59:16;;;;;;;5.43;3.50;;;;;;;;;;4969476;28;20121;-70
2021/09/25 16:01:45;;;;;;;8.43;3.67;;;;;;;;;;4949417;28;20043;-70
2021/09/25 16:04:12;;;;;;;5.05;3.78;;;;;;;;;;4973464;28;20098;-69
2021/09/25 16:06:40;;;;;;;6.05;3.67;;;;;;;;;;4959281;28;20074;-70
2021/09/25 16:09:07;;;;;;;4.47;3.47;;;;;;;;;;4968855;28;20061;-71
2021/09/25 16:11:34;;;;;;;3.83;3.33;;;;;;;;;;4971652;28;20124;-70
2021/09/25 16:14:01;;;;;;;5.47;3.35;;;;;;;;;;4955181;28;20047;-70
2021/09/25 16:16:29;;;;;;;6.25;3.88;;;;;;;;;;4958508;28;20075;-70
2021/09/25 16:18:57;;;;;;;8.80;7.03;;;;;;;;;;4960305;28;20038;-69
2021/09/25 16:21:26;;;;;;;6.25;4.97;;;;;;;;;;4964739;28;20038;-70
2021/09/25 16:23:53;;;;;;;5.35;4.85;;;;;;;;;;4971819;28;20118;-72
2021/09/25 16:26:21;;;;;;;6.63;4.40;;;;;;;;;;4959530;28;20051;-70
2021/09/25 16:28:48;;;;;;;5.78;4.43;;;;;;;;;;4959039;28;20050;-70
2021/09/25 16:31:17;;;;;;;4.45;3.80;;;;;;;;;;4955838;28;20035;-70
2021/09/25 16:33:44;;;;;;;5.78;3.92;;;;;;;;;;4957599;28;20054;-70
2021/09/25 16:36:13;;;;;;;4.55;4.10;;;;;;;;;;4966065;28;20414;-68
2021/09/25 16:38:40;;;;;;;5.63;4.82;;;;;;;;;;4968042;28;20043;-70
2021/09/25 16:41:08;;;;;;;7.45;5.03;;;;;;;;;;4954680;28;20057;-69
2021/09/25 16:43:35;;;;;;;7.20;5.68;;;;;;;;;;4951991;28;20047;-69
2021/09/25 16:46:02;;;;;;;7.72;6.50;;;;;;;;;;4966829;28;20039;-70
2021/09/25 16:48:29;;;;;;;8.45;5.95;;;;;;;;;;4969476;28;20505;-70
2021/09/25 16:50:57;;;;;;;7.30;5.78;;;;;;;;;;4954971;28;20051;-69
2021/09/25 16:53:27;;;;;;;8.65;6.43;;;;;;;;;;4969278;28;20507;-71
2021/09/25 16:55:55;;;;;;;8.52;6.53;;;;;;;;;;4964602;28;20776;-69
2021/09/25 16:58:22;;;;;;;6.15;5.53;;;;;;;;;;4955999;28;20633;-69
2021/09/25 17:00:49;;;;;;;7.10;5.82;;;;;;;;;;4955946;28;20572;-69
2021/09/25 17:03:17;;;;;;;8.73;6.30;;;;;;;;;;4959799;28;20051;-70
2021/09/25 17:05:45;;;;;;;11.75;6.97;;;;;;;;;;4942913;28;20044;-70
2021/09/25 17:08:12;;;;;;;10.45;6.13;;;;;;;;;;4971325;28;20043;-69
2021/09/25 17:10:41;;;;;;;12.13;8.60;;;;;;;;;;4969279;28;20391;-70
2021/09/25 17:13:09;;;;;;;8.50;6.65;;;;;;;;;;4969007;28;20046;-71
2021/09/25 17:15:36;;;;;;;10.40;6.78;;;;;;;;;;4968506;28;20130;-70
2021/09/25 17:18:03;;;;;;;9.77;6.03;;;;;;;;;;4971578;28;20559;-70
2021/09/25 17:20:30;;;;;;;9.90;6.63;;;;;;;;;;4967048;28;20049;-69
2021/09/25 17:23:03;;;;;;;6.97;6.00;;;;;;;;;;4966704;28;20039;-70
2021/09/25 17:25:31;;;;;;;11.02;6.80;;;;;;;;;;4970192;28;20043;-69
2021/09/25 17:27:59;;;;;;;7.22;6.03;;;;;;;;;;4971819;28;20039;-70
2021/09/25 17:30:27;;;;;;;9.63;5.40;;;;;;;;;;4967842;28;20051;-70
2021/09/25 17:32:55;;;;;;;9.25;6.15;;;;;;;;;;4966188;28;20631;-70
2021/09/25 17:35:22;;;;;;;14.55;7.53;;;;;;;;;;4957099;28;20118;-70
2021/09/25 17:37:49;;;;;;;11.60;9.32;;;;;;;;;;4953159;28;20520;-70
2021/09/25 17:40:18;;;;;;;11.95;9.68;;;;;;;;;;4960202;28;20050;-70
2021/09/25 17:42:45;;;;;;;18.40;8.20;;;;;;;;;;4942707;28;20130;-70
2021/09/25 17:45:14;;;;;;;13.98;8.05;;;;;;;;;;4970438;28;20499;-70
2021/09/25 17:47:41;;;;;;;15.93;8.55;;;;;;;;;;4955920;28;20106;-69
2021/09/25 17:50:09;;;;;;;14.23;8.10;;;;;;;;;;4962624;28;20049;-71
2021/09/25 17:52:36;;;;;;;13.07;7.90;;;;;;;;;;4966238;28;20051;-69
2021/09/25 17:55:04;;;;;;;11.52;9.15;;;;;;;;;;4952808;28;20058;-69
2021/09/25 17:57:31;;;;;;;11.20;8.38;;;;;;;;;;4969258;28;20125;-69
2021/09/25 18:00:00;;;;;;;13.00;9.00;;;;;;;;;;4965973;28;20035;-70
2021/09/25 18:02:29;;;;;;;16.73;9.25;;;;;;;;;;4968032;28;20039;-69
2021/09/25 18:04:56;;;;;;;13.65;8.25;;;;;;;;;;4971829;28;20533;-69
2021/09/25 18:07:25;;;;;;;16.50;8.85;;;;;;;;;;4951790;28;20066;-70
2021/09/25 18:09:52;;;;;;;11.73;8.07;;;;;;;;;;4965790;28;20089;-70
2021/09/25 18:12:20;;;;;;;14.20;8.48;;;;;;;;;;4961942;28;20046;-70
2021/09/25 18:14:49;;;;;;;9.80;7.63;;;;;;;;;;4970155;28;20057;-70
2021/09/25 18:17:21;;;;;;;11.95;8.13;;;;;;;;;;4966383;28;20511;-71
2021/09/25 18:19:49;;;;;;;11.18;6.90;;;;;;;;;;4966841;28;20570;-70
2021/09/25 18:22:17;;;;;;;10.23;6.95;;;;;;;;;;4969018;28;20046;-70
2021/09/25 18:24:44;;;;;;;9.63;6.60;;;;;;;;;;4955414;28;20517;-70
2021/09/25 18:27:12;;;;;;;10.02;7.03;;;;;;;;;;4958063;28;20047;-70
2021/09/25 18:29:39;;;;;;;15.13;9.30;;;;;;;;;;4956572;28;20046;-71
2021/09/25 18:32:07;;;;;;;11.02;9.65;;;;;;;;;;4970871;28;20042;-69
2021/09/25 18:34:35;;;;;;;14.38;11.65;;;;;;;;;;4957628;28;20135;-70
2021/09/25 18:37:04;;;;;;;13.43;11.43;;;;;;;;;;4957072;28;20048;-70
2021/09/25 18:39:32;;;;;;;17.67;10.90;;;;;;;;;;4957577;28;20065;-69
2021/09/25 18:42:00;;;;;;;12.18;10.52;;;;;;;;;;4969766;28;20074;-70
2021/09/25 18:44:29;;;;;;;15.00;11.27;;;;;;;;;;4967074;28;20065;-70
2021/09/25 18:46:57;;;;;;;15.07;10.48;;;;;;;;;;4963384;28;20043;-70
2021/09/25 18:49:24;;;;;;;11.93;10.52;;;;;;;;;;4963054;28;20046;-70
2021/09/25 18:51:52;;;;;;;14.50;10.57;;;;;;;;;;4951288;28;20070;-70
2021/09/25 18:54:21;;;;;;;11.85;9.07;;;;;;;;;;4965840;28;20035;-70
2021/09/25 18:56:48;;;;;;;13.63;9.52;;;;;;;;;;4965574;28;20120;-70
2021/09/25 18:59:15;;;;;;;12.77;8.93;;;;;;;;;;4969725;28;20380;-70
2021/09/25 19:01:42;;;;;;;15.50;8.55;;;;;;;;;;4954540;28;20047;-70
2021/09/25 19:04:10;;;;;;;13.57;8.75;;;;;;;;;;4965706;28;20403;-70
2021/09/25 19:06:38;;;;;;;11.57;8.02;;;;;;;;;;4965605;28;20054;-70
2021/09/25 19:09:07;;;;;;;9.95;7.25;;;;;;;;;;4970047;28;20471;-71
2021/09/25 19:11:38;;;;;;;21.85;10.98;;;;;;;;;;4961954;28;20050;-70
2021/09/25 19:14:05;;;;;;;42.65;15.82;;;;;;;;;;4959715;28;20035;-70
2021/09/25 19:16:33;;;;;;;31.52;14.80;;;;;;;;;;4955820;28;20557;-71
2021/09/25 19:19:00;;;;;;;22.30;12.55;;;;;;;;;;4969844;28;20046;-70
2021/09/25 19:21:28;;;;;;;12.90;9.38;;;;;;;;;;4963971;28;20053;-70
2021/09/25 19:23:57;;;;;;;10.10;7.53;;;;;;;;;;4964465;28;20039;-69
2021/09/25 19:26:25;;;;;;;11.40;7.55;;;;;;;;;;4955422;28;20527;-70
2021/09/25 19:28:53;;;;;;;9.80;6.85;;;;;;;;;;4936859;29;20058;-71
2021/09/25 19:31:21;;;;;;;7.97;6.35;;;;;;;;;;4964992;28;20043;-70
2021/09/25 19:33:48;;;;;;;9.02;5.43;;;;;;;;;;4948425;28;20456;-70
2021/09/25 19:36:16;;;;;;;6.63;5.88;;;;;;;;;;4968612;28;20039;-70
2021/09/25 19:38:43;;;;;;;11.63;5.82;;;;;;;;;;4954326;28;20057;-70